createdAt,value
2017-12-09T00:00:25.029Z,28.5
2017-12-09T00:01:25.082Z,28.4
2017-12-09T00:02:22.286Z,28.4
2017-12-09T00:03:24.892Z,28.5
2017-12-09T00:04:22.069Z,28.5
2017-12-09T00:05:22.418Z,28.4
2017-12-09T00:06:22.188Z,28.5
2017-12-09T00:07:22.553Z,28.4
2017-12-09T00:08:25.441Z,28.4
2017-12-09T00:09:25.502Z,28.4
2017-12-09T00:10:22.349Z,28.4
2017-12-09T00:11:25.262Z,28.4
2017-12-09T00:12:25.656Z,28.4
2017-12-09T00:13:25.363Z,28.4
2017-12-09T00:14:22.581Z,28.4
2017-12-09T00:15:25.468Z,28.4
2017-12-09T00:16:25.857Z,28.4
2017-12-09T00:17:25.945Z,28.4
2017-12-09T00:18:22.851Z,28.4
2017-12-09T00:19:26.078Z,28.4
2017-12-09T00:20:26.087Z,28.4
2017-12-09T00:21:22.884Z,28.4
2017-12-09T00:22:26.113Z,28.4
2017-12-09T00:23:23.269Z,28.4
2017-12-09T00:24:23.296Z,28.4
2017-12-09T00:25:26.259Z,28.4
2017-12-09T00:26:23.070Z,28.4
2017-12-09T00:27:26.275Z,28.4
2017-12-09T00:28:26.363Z,28.4
2017-12-09T00:29:23.552Z,28.4
2017-12-09T00:30:23.228Z,28.4
2017-12-09T00:31:23.584Z,28.4
2017-12-09T00:32:26.524Z,28.4
2017-12-09T00:33:23.418Z,28.4
2017-12-09T00:34:23.817Z,28.4
2017-12-09T00:35:26.757Z,28.4
2017-12-09T00:36:26.803Z,28.4
2017-12-09T00:37:26.564Z,28.4
2017-12-09T00:38:23.745Z,28.4
2017-12-09T00:39:26.988Z,28.4
2017-12-09T00:40:26.704Z,28.4
2017-12-09T00:41:27.058Z,28.4
2017-12-09T00:42:26.818Z,28.4
2017-12-09T00:43:24.277Z,28.4
2017-12-09T00:44:27.235Z,28.4
2017-12-09T00:45:24.133Z,28.4
2017-12-09T00:46:27.022Z,28.4
2017-12-09T00:47:27.328Z,28.4
2017-12-09T00:48:24.455Z,28.4
2017-12-09T00:49:27.151Z,28.4
2017-12-09T00:50:27.493Z,28.3
2017-12-09T00:51:27.228Z,28.3
2017-12-09T00:52:27.255Z,28.4
2017-12-09T00:53:27.274Z,28.4
2017-12-09T00:54:27.295Z,28.4
2017-12-09T00:55:24.483Z,28.3
2017-12-09T00:56:27.427Z,28.3
2017-12-09T00:57:27.417Z,28.3
2017-12-09T00:58:24.637Z,28.4
2017-12-09T00:59:27.786Z,28.4
2017-12-09T01:00:27.478Z,28.3
2017-12-09T01:01:27.610Z,28.3
2017-12-09T01:02:27.972Z,28.3
2017-12-09T01:03:24.874Z,28.3
2017-12-09T01:04:27.906Z,28.3
2017-12-09T01:05:28.222Z,28.3
2017-12-09T01:06:25.375Z,28.3
2017-12-09T01:07:28.271Z,28.3
2017-12-09T01:08:25.186Z,28.3
2017-12-09T01:09:25.308Z,28.3
2017-12-09T01:10:25.618Z,28.3
2017-12-09T01:11:28.248Z,28.3
2017-12-09T01:12:25.439Z,28.3
2017-12-09T01:13:28.720Z,28.3
2017-12-09T01:14:25.828Z,28.3
2017-12-09T01:15:28.769Z,28.3
2017-12-09T01:16:25.876Z,28.3
2017-12-09T01:17:28.645Z,28.3
2017-12-09T01:18:29.043Z,28.3
2017-12-09T01:19:25.926Z,28.3
2017-12-09T01:20:29.057Z,28.3
2017-12-09T01:21:29.166Z,28.3
2017-12-09T01:22:29.249Z,28.3
2017-12-09T01:23:26.144Z,28.3
2017-12-09T01:24:26.220Z,28.3
2017-12-09T01:25:26.219Z,28.3
2017-12-09T01:26:26.285Z,28.3
2017-12-09T01:27:26.653Z,28.3
2017-12-09T01:28:29.558Z,28.3
2017-12-09T01:29:26.409Z,28.3
2017-12-09T01:30:26.766Z,28.3
2017-12-09T01:31:26.816Z,28.3
2017-12-09T01:32:29.818Z,28.3
2017-12-09T01:33:29.774Z,28.3
2017-12-09T01:34:26.886Z,28.3
2017-12-09T01:35:26.623Z,28.3
2017-12-09T01:36:29.858Z,28.3
2017-12-09T01:37:27.040Z,28.3
2017-12-09T01:38:29.961Z,28.3
2017-12-09T01:39:27.169Z,28.3
2017-12-09T01:40:29.771Z,28.3
2017-12-09T01:41:27.297Z,28.3
2017-12-09T01:42:29.908Z,28.3
2017-12-09T01:43:30.357Z,28.3
2017-12-09T01:44:27.526Z,28.3
2017-12-09T01:45:27.265Z,28.2
2017-12-09T01:46:30.197Z,28.2
2017-12-09T01:47:27.598Z,28.3
2017-12-09T01:48:27.311Z,28.3
2017-12-09T01:49:30.571Z,28.3
2017-12-09T01:50:27.465Z,28.3
2017-12-09T01:51:27.530Z,28.3
2017-12-09T01:52:27.841Z,28.3
2017-12-09T01:53:30.408Z,28.3
2017-12-09T01:54:30.445Z,28.3
2017-12-09T01:55:30.794Z,28.3
2017-12-09T01:56:28.024Z,28.3
2017-12-09T01:57:30.643Z,28.2
2017-12-09T01:58:27.801Z,28.2
2017-12-09T01:59:28.105Z,28.3
2017-12-09T02:00:28.189Z,28.3
2017-12-09T02:01:28.118Z,28.3
2017-12-09T02:02:27.945Z,28.3
2017-12-09T02:03:31.207Z,28.3
2017-12-09T02:04:28.373Z,28.3
2017-12-09T02:05:28.419Z,28.3
2017-12-09T02:06:34.677Z,28.3
2017-12-09T02:07:28.413Z,28.3
2017-12-09T02:08:31.425Z,28.3
2017-12-09T02:09:31.424Z,28.3
2017-12-09T02:10:28.272Z,28.3
2017-12-09T02:11:31.124Z,28.3
2017-12-09T02:12:31.198Z,28.3
2017-12-09T02:13:31.256Z,28.3
2017-12-09T02:14:31.552Z,28.2
2017-12-09T02:15:28.448Z,28.3
2017-12-09T02:16:28.469Z,28.3
2017-12-09T02:17:31.719Z,28.3
2017-12-09T02:18:28.619Z,28.3
2017-12-09T02:19:28.590Z,28.3
2017-12-09T02:20:31.589Z,28.3
2017-12-09T02:21:31.898Z,28.3
2017-12-09T02:22:28.757Z,28.3
2017-12-09T02:23:29.137Z,28.2
2017-12-09T02:24:28.896Z,28.2
2017-12-09T02:25:32.074Z,28.2
2017-12-09T02:26:29.298Z,28.2
2017-12-09T02:27:31.910Z,28.3
2017-12-09T02:28:29.426Z,28.3
2017-12-09T02:29:29.422Z,28.2
2017-12-09T02:30:29.459Z,28.2
2017-12-09T02:31:29.216Z,28.2
2017-12-09T02:32:32.467Z,28.2
2017-12-09T02:33:32.414Z,28.2
2017-12-09T02:34:29.576Z,28.2
2017-12-09T02:35:29.423Z,28.2
2017-12-09T02:36:29.733Z,28.2
2017-12-09T02:37:29.509Z,28.2
2017-12-09T02:38:29.819Z,28.2
2017-12-09T02:39:32.817Z,28.2
2017-12-09T02:40:29.687Z,28.2
2017-12-09T02:41:30.117Z,28.2
2017-12-09T02:42:30.133Z,28.2
2017-12-09T02:43:30.170Z,28.2
2017-12-09T02:44:30.169Z,28.2
2017-12-09T02:45:33.138Z,28.2
2017-12-09T02:46:29.970Z,28.2
2017-12-09T02:47:30.027Z,28.2
2017-12-09T02:48:30.047Z,28.2
2017-12-09T02:49:30.379Z,28.2
2017-12-09T02:50:33.000Z,28.2
2017-12-09T02:51:33.066Z,28.2
2017-12-09T02:52:33.420Z,28.2
2017-12-09T02:53:33.143Z,28.2
2017-12-09T02:54:30.333Z,28.2
2017-12-09T02:55:30.443Z,28.2
2017-12-09T02:56:30.742Z,28.2
2017-12-09T02:57:30.505Z,28.2
2017-12-09T02:58:30.579Z,28.2
2017-12-09T02:59:30.600Z,28.2
2017-12-09T03:00:30.640Z,28.2
2017-12-09T03:01:33.498Z,28.2
2017-12-09T03:02:33.593Z,28.2
2017-12-09T03:03:33.580Z,28.2
2017-12-09T03:04:30.720Z,28.1
2017-12-09T03:05:30.851Z,28.1
2017-12-09T03:06:31.150Z,28.2
2017-12-09T03:07:31.310Z,28.2
2017-12-09T03:08:31.345Z,28.2
2017-12-09T03:09:31.154Z,28.2
2017-12-09T03:10:34.009Z,28.2
2017-12-09T03:11:34.371Z,28.2
2017-12-09T03:12:31.581Z,28.2
2017-12-09T03:13:34.509Z,28.2
2017-12-09T03:14:31.631Z,28.2
2017-12-09T03:15:31.658Z,28.2
2017-12-09T03:16:34.563Z,28.2
2017-12-09T03:17:34.668Z,28.2
2017-12-09T03:18:34.721Z,28.2
2017-12-09T03:19:34.834Z,28.2
2017-12-09T03:20:32.040Z,28.2
2017-12-09T03:21:34.664Z,28.2
2017-12-09T03:22:32.159Z,28.1
2017-12-09T03:23:34.800Z,28.2
2017-12-09T03:24:31.995Z,28.1
2017-12-09T03:25:34.869Z,28.1
2017-12-09T03:26:34.929Z,28.1
2017-12-09T03:27:32.102Z,28.1
2017-12-09T03:28:32.450Z,28.1
2017-12-09T03:29:32.470Z,28.1
2017-12-09T03:30:32.524Z,28.1
2017-12-09T03:31:32.548Z,28.1
2017-12-09T03:32:35.537Z,28.1
2017-12-09T03:33:32.706Z,28.1
2017-12-09T03:34:35.655Z,28.1
2017-12-09T03:35:32.822Z,28.1
2017-12-09T03:36:32.521Z,28.1
2017-12-09T03:37:32.844Z,28.1
2017-12-09T03:38:35.459Z,28.1
2017-12-09T03:39:32.608Z,28.1
2017-12-09T03:40:35.477Z,28.1
2017-12-09T03:41:32.662Z,28.1
2017-12-09T03:42:32.667Z,28.1
2017-12-09T03:43:32.741Z,28.1
2017-12-09T03:44:35.682Z,28.1
2017-12-09T03:45:36.052Z,28.1
2017-12-09T03:46:33.241Z,28.1
2017-12-09T03:47:35.814Z,28.1
2017-12-09T03:48:35.854Z,28.1
2017-12-09T03:49:36.222Z,28.1
2017-12-09T03:50:33.096Z,28.1
2017-12-09T03:51:33.428Z,28.1
2017-12-09T03:52:36.354Z,28.1
2017-12-09T03:53:36.386Z,28.1
2017-12-09T03:54:36.174Z,28.1
2017-12-09T03:55:33.576Z,28
2017-12-09T03:56:33.631Z,28.1
2017-12-09T03:57:33.452Z,28.1
2017-12-09T03:58:36.670Z,28.1
2017-12-09T03:59:33.553Z,28.1
2017-12-09T04:00:36.733Z,28.1
2017-12-09T04:01:36.790Z,28.1
2017-12-09T04:02:33.961Z,28.1
2017-12-09T04:03:34.045Z,28.1
2017-12-09T04:04:33.843Z,28.1
2017-12-09T04:05:33.857Z,28.1
2017-12-09T04:06:37.112Z,28.1
2017-12-09T04:07:33.993Z,28.1
2017-12-09T04:08:36.907Z,28.1
2017-12-09T04:09:36.924Z,28.1
2017-12-09T04:10:37.292Z,28.1
2017-12-09T04:11:34.476Z,28.1
2017-12-09T04:12:34.195Z,28.1
2017-12-09T04:13:34.248Z,28.1
2017-12-09T04:14:37.199Z,28.1
2017-12-09T04:15:34.697Z,28.1
2017-12-09T04:16:34.439Z,28.1
2017-12-09T04:17:37.311Z,28.1
2017-12-09T04:18:34.471Z,28
2017-12-09T04:19:34.524Z,28.1
2017-12-09T04:20:37.551Z,28.1
2017-12-09T04:21:34.804Z,28.1
2017-12-09T04:22:37.547Z,28.1
2017-12-09T04:23:35.033Z,28.1
2017-12-09T04:24:34.800Z,28.1
2017-12-09T04:25:34.875Z,28.1
2017-12-09T04:26:38.126Z,28
2017-12-09T04:27:35.036Z,28
2017-12-09T04:28:38.212Z,28
2017-12-09T04:29:35.372Z,28
2017-12-09T04:30:38.280Z,28
2017-12-09T04:31:38.333Z,28
2017-12-09T04:32:35.530Z,28
2017-12-09T04:33:38.130Z,28
2017-12-09T04:34:38.462Z,28
2017-12-09T04:35:35.676Z,28
2017-12-09T04:36:38.547Z,28
2017-12-09T04:37:38.292Z,28
2017-12-09T04:38:38.322Z,28
2017-12-09T04:39:38.664Z,28
2017-12-09T04:40:35.858Z,28
2017-12-09T04:41:38.776Z,28
2017-12-09T04:42:35.700Z,28
2017-12-09T04:43:36.007Z,28
2017-12-09T04:44:38.904Z,28
2017-12-09T04:45:35.778Z,28
2017-12-09T04:46:36.131Z,28
2017-12-09T04:47:39.109Z,28
2017-12-09T04:48:36.268Z,28
2017-12-09T04:49:39.281Z,28
2017-12-09T04:50:36.422Z,28
2017-12-09T04:51:39.069Z,28
2017-12-09T04:52:39.448Z,28
2017-12-09T04:53:39.171Z,28
2017-12-09T04:54:36.621Z,28
2017-12-09T04:55:39.263Z,28
2017-12-09T04:56:39.574Z,28
2017-12-09T04:57:36.425Z,28
2017-12-09T04:58:36.524Z,28
2017-12-09T04:59:36.865Z,28
2017-12-09T05:00:36.908Z,28
2017-12-09T05:01:36.947Z,28
2017-12-09T05:02:39.934Z,28
2017-12-09T05:03:36.743Z,28
2017-12-09T05:04:36.801Z,28
2017-12-09T05:05:36.828Z,28
2017-12-09T05:06:37.256Z,28
2017-12-09T05:07:39.854Z,28
2017-12-09T05:08:40.204Z,28
2017-12-09T05:09:37.078Z,28
2017-12-09T05:10:40.245Z,28
2017-12-09T05:11:39.977Z,28
2017-12-09T05:12:40.013Z,28
2017-12-09T05:13:40.402Z,28
2017-12-09T05:14:37.585Z,28
2017-12-09T05:15:37.296Z,28
2017-12-09T05:16:37.606Z,28
2017-12-09T05:17:40.209Z,28
2017-12-09T05:18:40.583Z,28
2017-12-09T05:19:40.604Z,28
2017-12-09T05:20:37.690Z,28
2017-12-09T05:21:37.762Z,28
2017-12-09T05:22:40.304Z,28
2017-12-09T05:23:37.748Z,28
2017-12-09T05:24:37.778Z,28
2017-12-09T05:25:37.841Z,28
2017-12-09T05:26:40.464Z,28
2017-12-09T05:27:37.610Z,28
2017-12-09T05:28:37.690Z,28
2017-12-09T05:29:37.777Z,28
2017-12-09T05:30:41.022Z,28
2017-12-09T05:31:40.809Z,28
2017-12-09T05:32:40.847Z,28
2017-12-09T05:33:38.373Z,28
2017-12-09T05:34:40.926Z,28
2017-12-09T05:35:41.293Z,28
2017-12-09T05:36:41.361Z,28
2017-12-09T05:37:41.080Z,28
2017-12-09T05:38:41.150Z,28
2017-12-09T05:39:38.633Z,28
2017-12-09T05:40:38.399Z,27.9
2017-12-09T05:41:41.661Z,27.9
2017-12-09T05:42:38.556Z,27.9
2017-12-09T05:43:38.642Z,27.9
2017-12-09T05:44:41.867Z,27.9
2017-12-09T05:45:41.944Z,27.9
2017-12-09T05:46:39.103Z,27.9
2017-12-09T05:47:41.702Z,27.9
2017-12-09T05:48:42.086Z,27.9
2017-12-09T05:49:38.984Z,27.9
2017-12-09T05:50:42.231Z,27.9
2017-12-09T05:51:41.984Z,27.9
2017-12-09T05:52:39.457Z,27.9
2017-12-09T05:53:42.382Z,27.9
2017-12-09T05:54:39.246Z,27.9
2017-12-09T05:55:42.149Z,27.9
2017-12-09T05:56:39.356Z,27.9
2017-12-09T05:57:45.122Z,27.9
2017-12-09T05:58:42.360Z,27.9
2017-12-09T05:59:39.778Z,27.9
2017-12-09T06:00:42.433Z,27.9
2017-12-09T06:01:42.726Z,27.9
2017-12-09T06:02:39.588Z,27.9
2017-12-09T06:03:42.623Z,27.9
2017-12-09T06:04:42.496Z,27.9
2017-12-09T06:05:39.980Z,27.9
2017-12-09T06:06:40.072Z,27.9
2017-12-09T06:07:40.070Z,27.9
2017-12-09T06:08:43.023Z,27.9
2017-12-09T06:09:42.769Z,27.9
2017-12-09T06:10:43.115Z,27.9
2017-12-09T06:11:40.285Z,27.9
2017-12-09T06:12:42.909Z,27.9
2017-12-09T06:13:43.274Z,27.9
2017-12-09T06:14:40.508Z,27.9
2017-12-09T06:15:40.171Z,27.9
2017-12-09T06:16:43.400Z,27.9
2017-12-09T06:17:40.238Z,27.9
2017-12-09T06:18:40.582Z,27.9
2017-12-09T06:19:43.181Z,27.9
2017-12-09T06:20:43.500Z,27.9
2017-12-09T06:21:43.529Z,27.9
2017-12-09T06:22:43.588Z,27.9
2017-12-09T06:23:43.662Z,27.9
2017-12-09T06:24:43.406Z,27.9
2017-12-09T06:25:43.764Z,27.9
2017-12-09T06:26:43.824Z,27.9
2017-12-09T06:27:43.556Z,27.9
2017-12-09T06:28:41.038Z,27.9
2017-12-09T06:29:43.941Z,27.9
2017-12-09T06:30:41.108Z,27.9
2017-12-09T06:31:41.218Z,27.9
2017-12-09T06:32:43.851Z,27.9
2017-12-09T06:33:41.066Z,27.9
2017-12-09T06:34:41.025Z,27.9
2017-12-09T06:35:41.344Z,27.9
2017-12-09T06:36:41.395Z,27.8
2017-12-09T06:37:43.972Z,27.8
2017-12-09T06:38:41.530Z,27.9
2017-12-09T06:39:41.297Z,27.9
2017-12-09T06:40:44.585Z,27.9
2017-12-09T06:41:41.373Z,27.9
2017-12-09T06:42:41.678Z,27.8
2017-12-09T06:43:44.286Z,27.9
2017-12-09T06:44:44.325Z,27.9
2017-12-09T06:45:44.366Z,27.9
2017-12-09T06:46:41.571Z,27.9
2017-12-09T06:47:41.865Z,27.9
2017-12-09T06:48:41.868Z,27.9
2017-12-09T06:49:44.479Z,27.9
2017-12-09T06:50:44.523Z,27.9
2017-12-09T06:51:42.000Z,27.9
2017-12-09T06:52:44.943Z,27.9
2017-12-09T06:53:44.702Z,27.9
2017-12-09T06:54:42.120Z,27.9
2017-12-09T06:55:41.920Z,27.9
2017-12-09T06:56:45.184Z,27.9
2017-12-09T06:57:45.199Z,27.9
2017-12-09T06:58:42.077Z,27.9
2017-12-09T06:59:42.413Z,27.9
2017-12-09T07:00:42.466Z,27.9
2017-12-09T07:01:45.457Z,27.8
2017-12-09T07:02:42.300Z,27.8
2017-12-09T07:03:45.181Z,27.8
2017-12-09T07:04:45.282Z,27.8
2017-12-09T07:05:45.642Z,27.8
2017-12-09T07:06:45.424Z,27.8
2017-12-09T07:07:42.948Z,27.8
2017-12-09T07:08:45.814Z,27.8
2017-12-09T07:09:45.891Z,27.8
2017-12-09T07:10:45.622Z,27.8
2017-12-09T07:11:45.989Z,27.8
2017-12-09T07:12:43.150Z,27.8
2017-12-09T07:13:42.912Z,27.8
2017-12-09T07:14:46.153Z,27.8
2017-12-09T07:15:45.891Z,27.8
2017-12-09T07:16:45.950Z,27.8
2017-12-09T07:17:46.344Z,27.8
2017-12-09T07:18:43.264Z,27.8
2017-12-09T07:19:46.382Z,27.8
2017-12-09T07:20:46.411Z,27.8
2017-12-09T07:21:46.170Z,27.8
2017-12-09T07:22:43.300Z,27.8
2017-12-09T07:23:43.567Z,27.8
2017-12-09T07:24:46.274Z,27.8
2017-12-09T07:25:46.648Z,27.8
2017-12-09T07:26:46.727Z,27.8
2017-12-09T07:27:46.417Z,27.8
2017-12-09T07:28:46.457Z,27.8
2017-12-09T07:29:43.937Z,27.8
2017-12-09T07:30:43.682Z,27.8
2017-12-09T07:31:46.955Z,27.8
2017-12-09T07:32:46.688Z,27.8
2017-12-09T07:33:46.720Z,27.8
2017-12-09T07:34:46.748Z,27.8
2017-12-09T07:35:46.800Z,27.8
2017-12-09T07:36:46.878Z,27.8
2017-12-09T07:37:47.216Z,27.8
2017-12-09T07:38:46.939Z,27.8
2017-12-09T07:39:44.144Z,27.8
2017-12-09T07:40:47.025Z,27.8
2017-12-09T07:41:44.257Z,27.8
2017-12-09T07:42:47.166Z,27.8
2017-12-09T07:43:44.647Z,27.8
2017-12-09T07:44:44.276Z,27.8
2017-12-09T07:45:44.355Z,27.8
2017-12-09T07:46:44.366Z,27.8
2017-12-09T07:47:44.377Z,27.7
2017-12-09T07:48:44.472Z,27.7
2017-12-09T07:49:47.330Z,27.8
2017-12-09T07:50:44.439Z,27.8
2017-12-09T07:51:44.529Z,27.8
2017-12-09T07:52:47.376Z,27.8
2017-12-09T07:53:44.534Z,27.8
2017-12-09T07:54:47.420Z,27.8
2017-12-09T07:55:47.475Z,27.8
2017-12-09T07:56:44.651Z,27.8
2017-12-09T07:57:47.593Z,27.8
2017-12-09T07:58:45.065Z,27.8
2017-12-09T07:59:47.984Z,27.8
2017-12-09T08:00:48.054Z,27.8
2017-12-09T08:01:44.930Z,27.8
2017-12-09T08:02:45.325Z,27.8
2017-12-09T08:03:48.187Z,27.8
2017-12-09T08:04:47.868Z,27.8
2017-12-09T08:05:45.050Z,27.8
2017-12-09T08:06:48.245Z,27.8
2017-12-09T08:07:48.306Z,27.8
2017-12-09T08:08:48.032Z,27.8
2017-12-09T08:09:45.235Z,27.8
2017-12-09T08:10:45.587Z,27.8
2017-12-09T08:11:48.191Z,27.8
2017-12-09T08:12:48.209Z,27.8
2017-12-09T08:13:48.304Z,27.8
2017-12-09T08:14:45.755Z,27.8
2017-12-09T08:15:45.844Z,27.8
2017-12-09T08:16:48.786Z,27.8
2017-12-09T08:17:48.803Z,27.8
2017-12-09T08:18:48.892Z,27.8
2017-12-09T08:19:48.874Z,27.8
2017-12-09T08:20:48.971Z,27.8
2017-12-09T08:21:48.683Z,27.8
2017-12-09T08:22:48.755Z,27.8
2017-12-09T08:23:46.188Z,27.8
2017-12-09T08:24:49.230Z,27.8
2017-12-09T08:25:48.882Z,27.9
2017-12-09T08:26:49.172Z,27.9
2017-12-09T08:27:49.219Z,27.9
2017-12-09T08:28:46.099Z,27.9
2017-12-09T08:29:49.301Z,27.9
2017-12-09T08:30:49.361Z,27.9
2017-12-09T08:31:49.374Z,27.9
2017-12-09T08:32:46.527Z,27.9
2017-12-09T08:33:49.137Z,27.9
2017-12-09T08:34:49.190Z,27.9
2017-12-09T08:35:49.232Z,27.9
2017-12-09T08:36:49.264Z,27.9
2017-12-09T08:37:49.304Z,27.9
2017-12-09T08:38:49.728Z,27.8
2017-12-09T08:39:49.430Z,27.9
2017-12-09T08:40:46.657Z,27.8
2017-12-09T08:41:49.918Z,27.9
2017-12-09T08:42:50.017Z,27.8
2017-12-09T08:43:47.215Z,27.9
2017-12-09T08:44:50.107Z,27.9
2017-12-09T08:45:46.936Z,27.9
2017-12-09T08:46:47.296Z,27.9
2017-12-09T08:47:47.353Z,27.9
2017-12-09T08:48:49.977Z,27.9
2017-12-09T08:49:47.387Z,27.9
2017-12-09T08:50:50.401Z,27.9
2017-12-09T08:51:47.550Z,27.9
2017-12-09T08:52:47.583Z,27.9
2017-12-09T08:53:50.234Z,27.9
2017-12-09T08:54:50.257Z,28
2017-12-09T08:55:50.306Z,28
2017-12-09T08:56:50.717Z,28
2017-12-09T08:57:47.789Z,27.9
2017-12-09T08:58:47.546Z,28
2017-12-09T08:59:47.596Z,27.9
2017-12-09T09:00:50.570Z,27.9
2017-12-09T09:01:50.894Z,27.9
2017-12-09T09:02:50.960Z,28
2017-12-09T09:03:50.717Z,27.9
2017-12-09T09:04:50.703Z,27.9
2017-12-09T09:05:50.773Z,28
2017-12-09T09:06:47.896Z,28
2017-12-09T09:07:48.020Z,28
2017-12-09T09:08:48.359Z,28
2017-12-09T09:09:48.312Z,28
2017-12-09T09:10:50.885Z,28
2017-12-09T09:11:51.250Z,28
2017-12-09T09:12:48.417Z,28
2017-12-09T09:13:48.156Z,28.1
2017-12-09T09:14:51.378Z,28.1
2017-12-09T09:15:51.079Z,28.1
2017-12-09T09:16:48.228Z,28.2
2017-12-09T09:17:51.500Z,28.2
2017-12-09T09:18:48.396Z,28.2
2017-12-09T09:19:51.595Z,28.2
2017-12-09T09:20:51.711Z,28.2
2017-12-09T09:21:48.799Z,28.2
2017-12-09T09:22:48.851Z,28.2
2017-12-09T09:23:48.640Z,28.2
2017-12-09T09:24:51.550Z,28.2
2017-12-09T09:25:49.009Z,28.2
2017-12-09T09:26:51.631Z,28.2
2017-12-09T09:27:49.063Z,28.2
2017-12-09T09:28:48.863Z,28.2
2017-12-09T09:29:51.778Z,28.2
2017-12-09T09:30:48.891Z,28.2
2017-12-09T09:31:49.212Z,28.2
2017-12-09T09:32:48.926Z,28.2
2017-12-09T09:33:51.867Z,28.2
2017-12-09T09:34:49.292Z,28.2
2017-12-09T09:35:52.242Z,28.1
2017-12-09T09:36:49.155Z,28.2
2017-12-09T09:37:49.526Z,28.1
2017-12-09T09:38:49.613Z,28.1
2017-12-09T09:39:52.537Z,28.2
2017-12-09T09:40:52.597Z,28.1
2017-12-09T09:41:52.324Z,28.2
2017-12-09T09:42:52.368Z,28.1
2017-12-09T09:43:52.453Z,28.2
2017-12-09T09:44:49.601Z,28.1
2017-12-09T09:45:52.528Z,28.2
2017-12-09T09:46:50.026Z,28.2
2017-12-09T09:47:50.091Z,28.2
2017-12-09T09:48:50.172Z,28.2
2017-12-09T09:49:53.158Z,28.1
2017-12-09T09:50:53.234Z,28.1
2017-12-09T09:51:52.910Z,28.1
2017-12-09T09:52:50.090Z,28.1
2017-12-09T09:53:53.337Z,28.1
2017-12-09T09:54:50.215Z,28.2
2017-12-09T09:55:50.544Z,28.2
2017-12-09T09:56:53.509Z,28.2
2017-12-09T09:57:53.602Z,28.2
2017-12-09T09:58:53.303Z,28.2
2017-12-09T09:59:50.743Z,28.2
2017-12-09T10:00:53.278Z,28.2
2017-12-09T10:01:50.759Z,28.2
2017-12-09T10:02:53.390Z,28.2
2017-12-09T10:03:50.886Z,28.3
2017-12-09T10:04:50.675Z,28.2
2017-12-09T10:05:50.946Z,28.3
2017-12-09T10:06:53.880Z,28.3
2017-12-09T10:07:50.963Z,28.3
2017-12-09T10:08:50.745Z,28.3
2017-12-09T10:09:51.083Z,28.3
2017-12-09T10:10:53.702Z,28.3
2017-12-09T10:11:54.092Z,28.2
2017-12-09T10:12:50.952Z,28.3
2017-12-09T10:13:51.058Z,28.2
2017-12-09T10:14:51.277Z,28.3
2017-12-09T10:15:51.344Z,28.2
2017-12-09T10:16:53.996Z,28.2
2017-12-09T10:17:51.152Z,28.2
2017-12-09T10:18:54.367Z,28.2
2017-12-09T10:19:51.274Z,28.2
2017-12-09T10:20:51.314Z,28.3
2017-12-09T10:21:51.352Z,28.3
2017-12-09T10:22:54.609Z,28.3
2017-12-09T10:23:54.648Z,28.3
2017-12-09T10:24:54.402Z,28.3
2017-12-09T10:25:54.418Z,28.3
2017-12-09T10:26:54.864Z,28.3
2017-12-09T10:27:54.591Z,28.3
2017-12-09T10:28:51.809Z,28.3
2017-12-09T10:29:51.887Z,28.3
2017-12-09T10:30:52.221Z,28.3
2017-12-09T10:31:52.034Z,28.3
2017-12-09T10:32:52.018Z,28.3
2017-12-09T10:33:55.228Z,28.3
2017-12-09T10:34:54.985Z,28.3
2017-12-09T10:35:52.450Z,28.4
2017-12-09T10:36:52.176Z,28.4
2017-12-09T10:37:55.421Z,28.4
2017-12-09T10:38:55.493Z,28.5
2017-12-09T10:39:55.235Z,28.5
2017-12-09T10:40:52.747Z,28.5
2017-12-09T10:41:55.340Z,28.5
2017-12-09T10:42:52.544Z,28.5
2017-12-09T10:43:52.535Z,28.5
2017-12-09T10:44:55.468Z,28.5
2017-12-09T10:45:52.630Z,28.5
2017-12-09T10:46:55.627Z,28.5
2017-12-09T10:47:55.884Z,28.5
2017-12-09T10:48:52.848Z,28.5
2017-12-09T10:49:56.016Z,28.5
2017-12-09T10:50:53.195Z,28.5
2017-12-09T10:51:53.296Z,28.5
2017-12-09T10:52:55.927Z,28.5
2017-12-09T10:53:53.122Z,28.5
2017-12-09T10:54:56.011Z,28.5
2017-12-09T10:55:53.149Z,28.5
2017-12-09T10:56:53.542Z,28.5
2017-12-09T10:57:56.476Z,28.5
2017-12-09T10:58:53.246Z,28.5
2017-12-09T10:59:53.374Z,28.5
2017-12-09T11:00:53.743Z,28.5
2017-12-09T11:01:56.708Z,28.5
2017-12-09T11:02:53.907Z,28.5
2017-12-09T11:03:53.598Z,28.5
2017-12-09T11:04:53.996Z,28.5
2017-12-09T11:05:54.016Z,28.5
2017-12-09T11:06:56.703Z,28.5
2017-12-09T11:07:53.879Z,28.5
2017-12-09T11:08:56.838Z,28.5
2017-12-09T11:09:57.211Z,28.5
2017-12-09T11:10:54.120Z,28.5
2017-12-09T11:11:54.479Z,28.4
2017-12-09T11:12:57.106Z,28.4
2017-12-09T11:13:54.252Z,28.4
2017-12-09T11:14:57.562Z,28.4
2017-12-09T11:15:54.401Z,28.4
2017-12-09T11:16:57.637Z,28.4
2017-12-09T11:17:57.741Z,28.3
2017-12-09T11:18:54.626Z,28.3
2017-12-09T11:19:54.714Z,28.3
2017-12-09T11:20:54.748Z,28.3
2017-12-09T11:21:55.113Z,28.3
2017-12-09T11:22:54.869Z,28.3
2017-12-09T11:23:54.841Z,28.3
2017-12-09T11:24:54.935Z,28.3
2017-12-09T11:25:55.272Z,28.3
2017-12-09T11:26:55.328Z,28.2
2017-12-09T11:27:55.063Z,28.3
2017-12-09T11:28:55.138Z,28.2
2017-12-09T11:29:55.171Z,28.3
2017-12-09T11:30:55.191Z,28.2
2017-12-09T11:31:58.460Z,28.3
2017-12-09T11:32:58.558Z,28.3
2017-12-09T11:33:58.633Z,28.2
2017-12-09T11:34:58.684Z,28.2
2017-12-09T11:35:58.460Z,28.2
2017-12-09T11:36:58.854Z,28.2
2017-12-09T11:37:55.947Z,27.9
2017-12-09T11:38:58.920Z,28.3
2017-12-09T11:39:58.905Z,28.3
2017-12-09T11:40:58.649Z,28.3
2017-12-09T11:41:56.096Z,28.3
2017-12-09T11:42:58.724Z,28.3
2017-12-09T11:43:55.963Z,28.3
2017-12-09T11:44:56.205Z,28.3
2017-12-09T11:45:58.844Z,28.3
2017-12-09T11:46:55.978Z,28.3
2017-12-09T11:47:58.917Z,28.3
2017-12-09T11:48:56.168Z,28.3
2017-12-09T11:49:59.103Z,28.3
2017-12-09T11:50:59.137Z,28.4
2017-12-09T11:51:56.320Z,28.4
2017-12-09T11:52:59.592Z,28.4
2017-12-09T11:53:59.284Z,28.4
2017-12-09T11:54:59.344Z,28.4
2017-12-09T11:55:59.413Z,28.4
2017-12-09T11:56:59.793Z,28.3
2017-12-09T11:57:56.661Z,28.3
2017-12-09T11:58:56.664Z,28.4
2017-12-09T11:59:59.910Z,28.4
2017-12-09T12:00:56.767Z,28.4
2017-12-09T12:02:00.081Z,28.4
2017-12-09T12:02:57.157Z,28.4
2017-12-09T12:03:59.772Z,28.4
2017-12-09T12:04:57.263Z,28.3
2017-12-09T12:06:00.184Z,28.3
2017-12-09T12:06:59.993Z,28.3
2017-12-09T12:08:00.071Z,28.3
2017-12-09T12:09:00.427Z,28.3
2017-12-09T12:10:00.507Z,28.3
2017-12-09T12:11:00.500Z,28.3
2017-12-09T12:11:57.433Z,28.2
2017-12-09T12:13:00.389Z,28.2
2017-12-09T12:14:00.411Z,28.2
2017-12-09T12:15:00.455Z,28.2
2017-12-09T12:15:57.983Z,28.2
2017-12-09T12:16:57.775Z,28.2
2017-12-09T12:17:58.123Z,28.2
2017-12-09T12:18:57.837Z,28.1
2017-12-09T12:20:00.950Z,28.2
2017-12-09T12:20:58.234Z,28.1
2017-12-09T12:22:00.867Z,28.2
2017-12-09T12:23:00.954Z,28.1
2017-12-09T12:24:00.990Z,28.1
2017-12-09T12:24:58.171Z,28.2
2017-12-09T12:26:01.135Z,28.1
2017-12-09T12:26:58.247Z,28.2
2017-12-09T12:27:58.606Z,28.2
2017-12-09T12:28:58.393Z,28.2
2017-12-09T12:29:58.437Z,28.2
2017-12-09T12:31:01.728Z,28.2
2017-12-09T12:32:01.408Z,28.2
2017-12-09T12:33:01.490Z,28.2
2017-12-09T12:33:58.685Z,28.2
2017-12-09T12:35:01.640Z,28.2
2017-12-09T12:36:01.708Z,28.1
2017-12-09T12:36:59.176Z,28.2
2017-12-09T12:38:02.121Z,28.2
2017-12-09T12:38:58.976Z,28.1
2017-12-09T12:39:58.962Z,28.1
2017-12-09T12:41:02.236Z,28.2
2017-12-09T12:41:59.109Z,28.1
2017-12-09T12:42:59.497Z,28.1
2017-12-09T12:43:59.566Z,28.1
2017-12-09T12:45:02.487Z,28.1
2017-12-09T12:45:59.617Z,28.1
2017-12-09T12:47:02.273Z,28.1
2017-12-09T12:48:02.615Z,28.1
2017-12-09T12:49:02.320Z,28.1
2017-12-09T12:49:59.479Z,28.1
2017-12-09T12:51:02.442Z,28.1
2017-12-09T12:52:02.841Z,28.1
2017-12-09T12:53:02.496Z,28.1
2017-12-09T12:54:02.592Z,28.1
2017-12-09T12:54:59.774Z,28
2017-12-09T12:56:00.142Z,28.1
2017-12-09T12:57:00.190Z,28
2017-12-09T12:58:02.888Z,28
2017-12-09T12:59:02.930Z,28.1
2017-12-09T13:00:00.404Z,28.1
2017-12-09T13:01:03.357Z,28.1
2017-12-09T13:02:00.514Z,28.1
2017-12-09T13:03:00.583Z,28.1
2017-12-09T13:04:00.361Z,28.1
2017-12-09T13:05:00.417Z,28.1
2017-12-09T13:06:00.469Z,28
2017-12-09T13:07:00.481Z,28.1
2017-12-09T13:08:00.506Z,28
2017-12-09T13:09:00.836Z,28.1
2017-12-09T13:10:03.527Z,28
2017-12-09T13:11:00.661Z,28.1
2017-12-09T13:12:00.945Z,28.1
2017-12-09T13:13:00.722Z,28.1
2017-12-09T13:14:01.024Z,28.1
2017-12-09T13:15:01.132Z,28.1
2017-12-09T13:16:00.896Z,28.1
2017-12-09T13:17:01.255Z,28.1
2017-12-09T13:18:04.192Z,28.1
2017-12-09T13:19:04.237Z,28.1
2017-12-09T13:20:01.435Z,28.1
2017-12-09T13:21:01.479Z,28.1
2017-12-09T13:22:04.447Z,28.1
2017-12-09T13:23:04.180Z,28.1
2017-12-09T13:24:01.705Z,28.1
2017-12-09T13:25:04.676Z,28.1